createdAt,value
2019-01-04T00:00:51.036Z,-18.35
2019-01-04T00:01:51.496Z,-18.35
2019-01-04T00:02:51.961Z,-18.34
2019-01-04T00:03:52.416Z,-18.34
2019-01-04T00:04:52.879Z,-18.34
2019-01-04T00:05:53.338Z,-18.35
2019-01-04T00:06:53.798Z,-18.37
2019-01-04T00:07:54.309Z,-18.36
2019-01-04T00:08:54.719Z,-18.35
2019-01-04T00:09:55.186Z,-18.36
2019-01-04T00:10:55.642Z,-18.36
2019-01-04T00:11:56.101Z,-18.36
2019-01-04T00:12:56.563Z,-18.36
2019-01-04T00:13:57.025Z,-18.36
2019-01-04T00:14:57.483Z,-18.36
2019-01-04T00:15:57.944Z,-18.36
2019-01-04T00:16:58.406Z,-18.36
2019-01-04T00:17:58.936Z,-18.36
2019-01-04T00:18:59.328Z,-18.38
2019-01-04T00:19:59.787Z,-18.38
2019-01-04T00:21:00.248Z,-18.38
2019-01-04T00:22:00.708Z,-18.36
2019-01-04T00:23:01.169Z,-18.38
2019-01-04T00:24:01.630Z,-18.38
2019-01-04T00:25:02.090Z,-18.38
2019-01-04T00:26:02.553Z,-18.38
2019-01-04T00:27:03.010Z,-18.37
2019-01-04T00:28:03.520Z,-18.38
2019-01-04T00:29:03.933Z,-18.38
2019-01-04T00:30:04.392Z,-18.36
2019-01-04T00:31:04.854Z,-18.38
2019-01-04T00:32:05.312Z,-18.36
2019-01-04T00:33:05.775Z,-18.36
2019-01-04T00:34:06.236Z,-18.38
2019-01-04T00:35:06.697Z,-18.36
2019-01-04T00:36:07.158Z,-18.36
2019-01-04T00:37:07.618Z,-18.36
2019-01-04T00:38:08.077Z,-18.38
2019-01-04T00:39:08.539Z,-18.37
2019-01-04T00:40:08.999Z,-18.32
2019-01-04T00:41:09.458Z,-18.38
2019-01-04T00:42:09.923Z,-18.38
2019-01-04T00:43:10.381Z,-18.36
2019-01-04T00:44:10.843Z,-18.38
2019-01-04T00:45:11.302Z,-18.38
2019-01-04T00:46:11.762Z,-18.38
2019-01-04T00:47:12.225Z,-18.38
2019-01-04T00:48:12.688Z,-18.38
2019-01-04T00:49:13.270Z,-18.38
2019-01-04T00:50:13.608Z,-18.40
2019-01-04T00:51:14.068Z,-18.36
2019-01-04T00:52:14.528Z,-18.36
2019-01-04T00:53:14.987Z,-18.36
2019-01-04T00:54:15.448Z,-18.39
2019-01-04T00:55:15.910Z,-18.38
2019-01-04T00:56:16.570Z,-18.38
2019-01-04T00:57:16.830Z,-18.39
2019-01-04T00:58:17.293Z,-18.38
2019-01-04T00:59:17.751Z,-18.40
2019-01-04T01:00:18.214Z,-18.38
2019-01-04T01:02:19.132Z,-18.38
2019-01-04T01:03:19.596Z,-18.40
2019-01-04T01:04:20.055Z,-18.40
2019-01-04T01:05:20.516Z,-18.40
2019-01-04T01:06:20.977Z,-18.41
2019-01-04T01:07:21.477Z,-18.40
2019-01-04T01:08:21.896Z,-18.42
2019-01-04T01:09:22.358Z,-18.40
2019-01-04T01:10:22.819Z,-18.40
2019-01-04T01:11:23.278Z,-18.40
2019-01-04T01:12:23.738Z,-18.40
2019-01-04T01:13:24.199Z,-18.42
2019-01-04T01:14:24.661Z,-18.42
2019-01-04T01:15:25.121Z,-18.44
2019-01-04T01:16:25.580Z,-18.42
2019-01-04T01:17:26.042Z,-18.41
2019-01-04T01:18:26.502Z,-18.40
2019-01-04T01:19:26.965Z,-18.40
2019-01-04T01:20:27.425Z,-18.42
2019-01-04T01:21:27.887Z,-18.40
2019-01-04T01:22:28.344Z,-18.43
2019-01-04T01:23:28.856Z,-18.43
2019-01-04T01:24:29.264Z,-18.44
2019-01-04T01:25:29.727Z,-18.46
2019-01-04T01:26:30.187Z,-18.42
2019-01-04T01:27:30.647Z,-18.43
2019-01-04T01:28:31.158Z,-18.44
2019-01-04T01:29:31.568Z,-18.42
2019-01-04T01:30:32.030Z,-18.41
2019-01-04T01:31:32.492Z,-18.42
2019-01-04T01:32:32.950Z,-18.44
2019-01-04T01:33:33.409Z,-18.44
2019-01-04T01:34:33.871Z,-18.42
2019-01-04T01:35:34.331Z,-18.44
2019-01-04T01:36:34.791Z,-18.44
2019-01-04T01:37:35.255Z,-18.44
2019-01-04T01:38:35.715Z,-18.44
2019-01-04T01:39:36.176Z,-18.44
2019-01-04T01:40:36.634Z,-18.42
2019-01-04T01:41:37.097Z,-18.42
2019-01-04T01:42:37.556Z,-18.42
2019-01-04T01:43:38.067Z,-18.42
2019-01-04T01:44:38.476Z,-18.44
2019-01-04T01:45:38.937Z,-18.42
2019-01-04T01:46:39.399Z,-18.44
2019-01-04T01:47:39.861Z,-18.44
2019-01-04T01:48:40.366Z,-18.43
2019-01-04T01:49:40.781Z,-18.42
2019-01-04T01:50:41.242Z,-18.44
2019-01-04T01:51:41.701Z,-18.40
2019-01-04T01:52:42.161Z,-18.42
2019-01-04T01:53:42.622Z,-18.44
2019-01-04T01:54:43.081Z,-18.44
2019-01-04T01:55:43.545Z,-18.42
2019-01-04T01:56:44.001Z,-18.44
2019-01-04T01:57:44.463Z,-18.42
2019-01-04T01:58:44.975Z,-18.42
2019-01-04T01:59:45.384Z,-18.43
2019-01-04T02:00:45.845Z,-18.43
2019-01-04T02:01:46.304Z,-18.44
2019-01-04T02:02:46.767Z,-18.44
2019-01-04T02:03:47.225Z,-18.44
2019-01-04T02:04:47.686Z,-18.42
2019-01-04T02:05:48.147Z,-18.42
2019-01-04T02:06:48.606Z,-18.42
2019-01-04T02:07:49.069Z,-18.44
2019-01-04T02:08:49.527Z,-18.44
2019-01-04T02:09:49.990Z,-18.42
2019-01-04T02:10:50.449Z,-18.42
2019-01-04T02:11:50.910Z,-18.44
2019-01-04T02:12:51.368Z,-18.44
2019-01-04T02:13:51.830Z,-18.44
2019-01-04T02:14:52.291Z,-18.42
2019-01-04T02:15:52.751Z,-18.42
2019-01-04T02:16:53.212Z,-18.42
2019-01-04T02:17:53.672Z,-18.44
2019-01-04T02:18:54.183Z,-18.42
2019-01-04T02:19:54.592Z,-18.44
2019-01-04T02:20:55.055Z,-18.45
2019-01-04T02:21:55.513Z,-18.44
2019-01-04T02:22:55.974Z,-18.44
2019-01-04T02:23:56.437Z,-18.43
2019-01-04T02:24:56.894Z,-18.42
2019-01-04T02:25:57.359Z,-18.46
2019-01-04T02:26:57.817Z,-18.44
2019-01-04T02:27:58.277Z,-18.44
2019-01-04T02:28:58.740Z,-18.44
2019-01-04T02:29:59.197Z,-18.42
2019-01-04T02:30:59.657Z,-18.44
2019-01-04T02:32:00.120Z,-18.42
2019-01-04T02:33:00.581Z,-18.44
2019-01-04T02:34:01.041Z,-18.42
2019-01-04T02:35:01.502Z,-18.44
2019-01-04T02:36:01.964Z,-18.42
2019-01-04T02:37:02.420Z,-18.43
2019-01-04T02:38:02.880Z,-18.44
2019-01-04T02:39:03.392Z,-18.42
2019-01-04T02:40:03.805Z,-18.44
2019-01-04T02:41:04.263Z,-18.44
2019-01-04T02:42:04.724Z,-18.44
2019-01-04T02:43:05.187Z,-18.44
2019-01-04T02:44:05.644Z,-18.44
2019-01-04T02:45:06.105Z,-18.41
2019-01-04T02:46:06.567Z,-18.46
2019-01-04T02:47:07.026Z,-18.44
2019-01-04T02:48:07.487Z,-18.44
2019-01-04T02:49:07.951Z,-18.42
2019-01-04T02:50:08.418Z,-18.44
2019-01-04T02:51:08.868Z,-18.44
2019-01-04T02:52:09.330Z,-18.44
2019-01-04T02:53:09.790Z,-18.46
2019-01-04T02:54:10.300Z,-18.44
2019-01-04T02:55:10.710Z,-18.43
2019-01-04T02:56:11.170Z,-18.44
2019-01-04T02:57:11.631Z,-18.44
2019-01-04T02:58:12.091Z,-18.45
2019-01-04T02:59:12.619Z,-18.44
2019-01-04T03:00:13.014Z,-18.46
2019-01-04T03:01:13.472Z,-18.45
2019-01-04T03:02:13.933Z,-18.46
2019-01-04T03:03:14.474Z,-18.44
2019-01-04T03:04:14.854Z,-18.46
2019-01-04T03:05:15.396Z,-18.48
2019-01-04T03:06:15.774Z,-18.48
2019-01-04T03:07:16.236Z,-18.46
2019-01-04T03:08:16.697Z,-18.45
2019-01-04T03:09:17.162Z,-18.47
2019-01-04T03:10:17.617Z,-18.47
2019-01-04T03:11:18.078Z,-18.48
2019-01-04T03:12:18.546Z,-18.50
2019-01-04T03:13:18.997Z,-18.48
2019-01-04T03:14:19.459Z,-18.50
2019-01-04T03:15:19.918Z,-18.50
2019-01-04T03:16:20.378Z,-18.50
2019-01-04T03:17:20.840Z,-18.50
2019-01-04T03:18:21.299Z,-18.48
2019-01-04T03:19:21.764Z,-18.50
2019-01-04T03:20:22.224Z,-18.50
2019-01-04T03:21:22.686Z,-18.52
2019-01-04T03:22:23.143Z,-18.52
2019-01-04T03:23:23.602Z,-18.52
2019-01-04T03:24:24.063Z,-18.51
2019-01-04T03:25:24.529Z,-18.52
2019-01-04T03:26:24.983Z,-18.51
2019-01-04T03:27:25.443Z,-18.52
2019-01-04T03:28:25.906Z,-18.52
2019-01-04T03:29:26.364Z,-18.54
2019-01-04T03:30:26.826Z,-18.54
2019-01-04T03:31:27.287Z,-18.54
2019-01-04T03:32:27.749Z,-18.54
2019-01-04T03:33:28.231Z,-18.52
2019-01-04T03:34:28.666Z,-18.53
2019-01-04T03:35:29.128Z,-18.52
2019-01-04T03:36:29.588Z,-18.54
2019-01-04T03:37:30.056Z,-18.54
2019-01-04T03:38:30.509Z,-18.53
2019-01-04T03:39:30.967Z,-18.56
2019-01-04T03:40:31.429Z,-18.56
2019-01-04T03:41:31.889Z,-18.56
2019-01-04T03:42:32.354Z,-18.56
2019-01-04T03:43:32.811Z,-18.58
2019-01-04T03:44:33.269Z,-18.56
2019-01-04T03:45:33.731Z,-18.57
2019-01-04T03:46:34.202Z,-18.56
2019-01-04T03:47:34.651Z,-18.58
2019-01-04T03:48:35.113Z,-18.58
2019-01-04T03:49:35.571Z,-18.56
2019-01-04T03:50:36.032Z,-18.58
2019-01-04T03:51:36.496Z,-18.60
2019-01-04T03:52:36.954Z,-18.59
2019-01-04T03:53:37.414Z,-18.60
2019-01-04T03:54:37.930Z,-18.60
2019-01-04T03:55:38.336Z,-18.61
2019-01-04T03:56:38.796Z,-18.60
2019-01-04T03:57:39.257Z,-18.60
2019-01-04T03:58:39.721Z,-18.60
2019-01-04T03:59:40.176Z,-18.62
2019-01-04T04:00:40.638Z,-18.60
2019-01-04T04:01:41.097Z,-18.60
2019-01-04T04:02:41.558Z,-18.62
2019-01-04T04:03:42.021Z,-18.60
2019-01-04T04:04:42.479Z,-18.62
2019-01-04T04:05:42.944Z,-18.62
2019-01-04T04:06:43.412Z,-18.62
2019-01-04T04:07:43.862Z,-18.60
2019-01-04T04:08:44.324Z,-18.62
2019-01-04T04:09:44.833Z,-18.62
2019-01-04T04:10:45.243Z,-18.60
2019-01-04T04:11:45.703Z,-18.60
2019-01-04T04:12:46.167Z,-18.62
2019-01-04T04:13:46.622Z,-18.60
2019-01-04T04:14:47.237Z,-18.60
2019-01-04T04:15:47.543Z,-18.61
2019-01-04T04:16:48.005Z,-18.60
2019-01-04T04:17:48.464Z,-18.62
2019-01-04T04:18:48.926Z,-18.61
2019-01-04T04:19:49.394Z,-18.60
2019-01-04T04:20:49.849Z,-18.60
2019-01-04T04:21:50.312Z,-18.60
2019-01-04T04:22:50.767Z,-18.60
2019-01-04T04:23:51.235Z,-18.60
2019-01-04T04:24:51.689Z,-18.60
2019-01-04T04:25:52.150Z,-18.58
2019-01-04T04:26:52.610Z,-18.60
2019-01-04T04:27:53.072Z,-18.60
2019-01-04T04:28:53.539Z,-18.59
2019-01-04T04:29:53.989Z,-18.59
2019-01-04T04:30:54.452Z,-18.60
2019-01-04T04:31:54.913Z,-18.58
2019-01-04T04:32:55.373Z,-18.56
2019-01-04T04:33:55.831Z,-18.56
2019-01-04T04:34:56.296Z,-18.58
2019-01-04T04:35:56.753Z,-18.58
2019-01-04T04:36:57.215Z,-18.58
2019-01-04T04:37:57.680Z,-18.58
2019-01-04T04:38:58.135Z,-18.57
2019-01-04T04:39:58.595Z,-18.56
2019-01-04T04:40:59.059Z,-18.56
2019-01-04T04:41:59.514Z,-18.56
2019-01-04T04:42:59.979Z,-18.56
2019-01-04T04:44:00.436Z,-18.56
2019-01-04T04:45:00.902Z,-18.54
2019-01-04T04:46:01.358Z,-18.53
2019-01-04T04:47:01.817Z,-18.54
2019-01-04T04:48:02.279Z,-18.56
2019-01-04T04:49:02.739Z,-18.54
2019-01-04T04:50:03.401Z,-18.54
2019-01-04T04:51:03.661Z,-18.54
2019-01-04T04:52:04.128Z,-18.54
2019-01-04T04:53:04.581Z,-18.53
2019-01-04T04:54:05.045Z,-18.52
2019-01-04T04:55:05.501Z,-18.54
2019-01-04T04:56:05.963Z,-18.54
2019-01-04T04:57:06.422Z,-18.50
2019-01-04T04:58:06.881Z,-18.56
2019-01-04T04:59:07.342Z,-18.52
2019-01-04T05:00:07.802Z,-18.52
2019-01-04T05:01:08.269Z,-18.52
2019-01-04T05:02:08.725Z,-18.54
2019-01-04T05:03:09.186Z,-18.52
2019-01-04T05:04:09.643Z,-18.52
2019-01-04T05:05:10.155Z,-18.52
2019-01-04T05:06:10.564Z,-18.52
2019-01-04T05:07:11.026Z,-18.52
2019-01-04T05:08:11.489Z,-18.50
2019-01-04T05:09:11.946Z,-18.50
2019-01-04T05:10:12.405Z,-18.50
2019-01-04T05:11:12.867Z,-18.50
2019-01-04T05:12:13.394Z,-18.50
2019-01-04T05:13:13.790Z,-18.50
2019-01-04T05:14:14.262Z,-18.48
2019-01-04T05:15:14.708Z,-18.47
2019-01-04T05:16:15.167Z,-18.46
2019-01-04T05:17:15.631Z,-18.48
2019-01-04T05:18:16.091Z,-18.50
2019-01-04T05:19:16.554Z,-18.48
2019-01-04T05:20:17.008Z,-18.48
2019-01-04T05:21:17.469Z,-18.48
2019-01-04T05:22:17.929Z,-18.46
2019-01-04T05:23:18.389Z,-18.46
2019-01-04T05:24:18.860Z,-18.47
2019-01-04T05:25:19.311Z,-18.44
2019-01-04T05:26:19.771Z,-18.48
2019-01-04T05:27:20.230Z,-18.48
2019-01-04T05:28:20.693Z,-18.44
2019-01-04T05:29:21.152Z,-18.44
2019-01-04T05:30:21.614Z,-18.45
2019-01-04T05:31:22.075Z,-18.44
2019-01-04T05:32:22.534Z,-18.43
2019-01-04T05:33:22.993Z,-18.44
2019-01-04T05:34:23.455Z,-18.42
2019-01-04T05:35:23.913Z,-18.44
2019-01-04T05:36:24.374Z,-18.42
2019-01-04T05:37:24.835Z,-18.42
2019-01-04T05:38:25.296Z,-18.42
2019-01-04T05:39:25.755Z,-18.42
2019-01-04T05:40:26.215Z,-18.42
2019-01-04T05:41:26.675Z,-18.42
2019-01-04T05:42:27.134Z,-18.42
2019-01-04T05:43:27.599Z,-18.40
2019-01-04T05:44:28.058Z,-18.38
2019-01-04T05:45:28.570Z,-18.40
2019-01-04T05:46:28.976Z,-18.40
2019-01-04T05:47:29.440Z,-18.40
2019-01-04T05:48:29.898Z,-18.40
2019-01-04T05:49:30.390Z,-18.41
2019-01-04T05:50:30.817Z,-18.38
2019-01-04T05:51:31.278Z,-18.41
2019-01-04T05:52:31.748Z,-18.42
2019-01-04T05:53:32.200Z,-18.40
2019-01-04T05:54:32.661Z,-18.41
2019-01-04T05:55:33.119Z,-18.40
2019-01-04T05:56:33.579Z,-18.39
2019-01-04T05:57:34.041Z,-18.40
2019-01-04T05:58:34.501Z,-18.40
2019-01-04T05:59:34.960Z,-18.38
2019-01-04T06:00:35.422Z,-18.40
2019-01-04T06:01:35.885Z,-18.38
2019-01-04T06:02:36.341Z,-18.38
2019-01-04T06:03:36.803Z,-18.38
2019-01-04T06:04:37.264Z,-18.36
2019-01-04T06:05:37.723Z,-18.38
2019-01-04T06:06:38.183Z,-18.38
2019-01-04T06:07:38.642Z,-18.36
2019-01-04T06:08:39.105Z,-18.38
2019-01-04T06:09:39.566Z,-18.36
2019-01-04T06:10:40.028Z,-18.36
2019-01-04T06:11:40.483Z,-18.36
2019-01-04T06:12:40.945Z,-18.37
2019-01-04T06:13:41.404Z,-18.35
2019-01-04T06:14:41.865Z,-18.35
2019-01-04T06:15:42.324Z,-18.34
2019-01-04T06:16:42.785Z,-18.34
2019-01-04T06:17:43.247Z,-18.32
2019-01-04T06:18:43.704Z,-18.34
2019-01-04T06:19:44.166Z,-18.32
2019-01-04T06:20:44.676Z,-18.34
2019-01-04T06:21:45.092Z,-18.34
2019-01-04T06:22:45.546Z,-18.30
2019-01-04T06:23:46.009Z,-18.34
2019-01-04T06:24:46.469Z,-18.32
2019-01-04T06:25:46.933Z,-18.30
2019-01-04T06:26:47.388Z,-18.32
2019-01-04T06:27:47.848Z,-18.30
2019-01-04T06:28:48.308Z,-18.30
2019-01-04T06:29:48.770Z,-18.31
2019-01-04T06:30:49.230Z,-18.31
2019-01-04T06:31:49.691Z,-18.30
2019-01-04T06:32:50.149Z,-18.29
2019-01-04T06:33:50.610Z,-18.26
2019-01-04T06:34:51.069Z,-18.27
2019-01-04T06:35:51.530Z,-18.27
2019-01-04T06:36:51.990Z,-18.26
2019-01-04T06:37:52.450Z,-18.26
2019-01-04T06:38:52.910Z,-18.26
2019-01-04T06:39:53.369Z,-18.24
2019-01-04T06:40:53.832Z,-18.24
2019-01-04T06:41:54.293Z,-18.24
2019-01-04T06:42:54.751Z,-18.22
2019-01-04T06:43:55.210Z,-18.22
2019-01-04T06:44:55.671Z,-18.20
2019-01-04T06:45:56.282Z,-18.20
2019-01-04T06:46:56.590Z,-18.19
2019-01-04T06:47:57.057Z,-18.18
2019-01-04T06:48:57.511Z,-18.19
2019-01-04T06:49:57.971Z,-18.16
2019-01-04T06:50:58.431Z,-18.16
2019-01-04T06:51:58.909Z,-18.16
2019-01-04T06:52:59.351Z,-18.16
2019-01-04T06:53:59.850Z,-18.14
2019-01-04T06:55:00.274Z,-18.13
2019-01-04T06:56:00.732Z,-18.14
2019-01-04T06:57:01.194Z,-18.14
2019-01-04T06:58:01.653Z,-18.12
2019-01-04T06:59:02.112Z,-18.12
2019-01-04T07:00:02.574Z,-18.10
2019-01-04T07:01:03.082Z,-18.10
2019-01-04T07:02:03.497Z,-18.09
2019-01-04T07:03:03.954Z,-18.09
2019-01-04T07:04:04.415Z,-18.08
2019-01-04T07:05:04.875Z,-18.07
2019-01-04T07:06:05.335Z,-18.07
2019-01-04T07:07:05.794Z,-18.06
2019-01-04T07:08:06.256Z,-18.06
2019-01-04T07:09:06.717Z,-18.06
2019-01-04T07:10:07.175Z,-18.06
2019-01-04T07:11:07.635Z,-18.04
2019-01-04T07:12:08.095Z,-18.05
2019-01-04T07:13:08.557Z,-18.04
2019-01-04T07:14:09.016Z,-18.02
2019-01-04T07:15:09.475Z,-18.04
2019-01-04T07:16:09.986Z,-18.02
2019-01-04T07:17:10.396Z,-18.00
2019-01-04T07:18:10.857Z,-18.02
2019-01-04T07:19:11.315Z,-18.00
2019-01-04T07:20:11.775Z,-18.00
2019-01-04T07:21:12.292Z,-17.99
2019-01-04T07:22:12.703Z,-17.99
2019-01-04T07:23:13.155Z,-18.00
2019-01-04T07:24:13.616Z,-17.98
2019-01-04T07:25:14.079Z,-17.98
2019-01-04T07:26:14.536Z,-17.98
2019-01-04T07:27:15.000Z,-17.96
2019-01-04T07:28:15.457Z,-17.95
2019-01-04T07:29:15.917Z,-17.96
2019-01-04T07:30:16.376Z,-17.97
2019-01-04T07:31:16.838Z,-17.96
2019-01-04T07:32:17.308Z,-17.96
2019-01-04T07:33:17.756Z,-17.95
2019-01-04T07:34:18.248Z,-17.94
2019-01-04T07:35:18.678Z,-17.94
2019-01-04T07:36:19.138Z,-17.94
2019-01-04T07:37:19.599Z,-17.94
2019-01-04T07:38:20.058Z,-17.94
2019-01-04T07:39:20.519Z,-17.93
2019-01-04T07:40:20.979Z,-17.94
2019-01-04T07:41:21.438Z,-17.93
2019-01-04T07:42:21.899Z,-17.92
2019-01-04T07:43:22.358Z,-17.88
2019-01-04T07:44:22.820Z,-17.90
2019-01-04T07:45:23.282Z,-17.90
2019-01-04T07:46:23.741Z,-17.88
2019-01-04T07:47:24.198Z,-17.89
2019-01-04T07:48:24.660Z,-17.88
2019-01-04T07:49:25.118Z,-17.88
2019-01-04T07:50:25.580Z,-17.86
2019-01-04T07:51:26.038Z,-17.86
2019-01-04T07:52:26.499Z,-17.86
2019-01-04T07:53:26.960Z,-17.84
2019-01-04T07:54:27.427Z,-17.85
2019-01-04T07:55:27.879Z,-17.84
2019-01-04T07:56:28.643Z,-17.84
2019-01-04T07:57:28.800Z,-17.82
2019-01-04T07:58:29.259Z,-17.82
2019-01-04T07:59:29.720Z,-17.80
2019-01-04T08:00:30.179Z,-17.80
2019-01-04T08:01:30.690Z,-17.78
2019-01-04T08:02:31.101Z,-17.78
2019-01-04T08:03:31.559Z,-17.77
2019-01-04T08:04:32.020Z,-17.74
2019-01-04T08:05:32.481Z,-17.74
2019-01-04T08:06:32.940Z,-17.72
2019-01-04T08:07:33.401Z,-17.72
2019-01-04T08:08:33.860Z,-17.72
2019-01-04T08:09:34.320Z,-17.70
2019-01-04T08:10:34.780Z,-17.68
2019-01-04T08:11:35.241Z,-17.68
2019-01-04T08:12:35.700Z,-17.66
2019-01-04T08:13:36.162Z,-17.66
2019-01-04T08:14:36.621Z,-17.64
2019-01-04T08:15:37.082Z,-17.64
2019-01-04T08:16:37.547Z,-17.62
2019-01-04T08:17:38.000Z,-17.62
2019-01-04T08:18:38.460Z,-17.60
2019-01-04T08:19:38.921Z,-17.60
2019-01-04T08:20:39.380Z,-17.60
2019-01-04T08:21:39.843Z,-17.58
2019-01-04T08:22:40.302Z,-17.56
2019-01-04T08:23:40.762Z,-17.56
2019-01-04T08:24:41.222Z,-17.54
2019-01-04T08:25:41.681Z,-17.54
2019-01-04T08:26:42.141Z,-17.52
2019-01-04T08:27:42.601Z,-17.52
2019-01-04T08:28:43.062Z,-17.52
2019-01-04T08:29:43.524Z,-17.52
2019-01-04T08:30:43.984Z,-17.50
2019-01-04T08:31:44.442Z,-17.50
2019-01-04T08:32:44.904Z,-17.49
2019-01-04T08:33:45.361Z,-17.48
2019-01-04T08:34:45.831Z,-17.48
2019-01-04T08:35:46.280Z,-17.46
2019-01-04T08:36:46.742Z,-17.46
2019-01-04T08:37:47.202Z,-17.44
2019-01-04T08:38:47.662Z,-17.44
2019-01-04T08:39:48.124Z,-17.44
2019-01-04T08:40:48.581Z,-17.45
2019-01-04T08:41:49.046Z,-17.44
2019-01-04T08:42:49.502Z,-17.44
2019-01-04T08:43:49.961Z,-17.44
2019-01-04T08:44:50.421Z,-17.42
2019-01-04T08:45:50.883Z,-17.42
2019-01-04T08:46:51.343Z,-17.42
2019-01-04T08:47:51.802Z,-17.42
2019-01-04T08:48:52.263Z,-17.42
2019-01-04T08:49:52.723Z,-17.42
2019-01-04T08:50:53.183Z,-17.42
2019-01-04T08:51:53.694Z,-17.42
2019-01-04T08:52:54.103Z,-17.40
2019-01-04T08:53:54.562Z,-17.40
2019-01-04T08:54:55.022Z,-17.40
2019-01-04T08:55:55.482Z,-17.40
2019-01-04T08:56:55.943Z,-17.40
2019-01-04T08:57:56.403Z,-17.40
2019-01-04T08:58:56.863Z,-17.40
2019-01-04T08:59:57.321Z,-17.40
2019-01-04T09:00:57.790Z,-17.40
2019-01-04T09:01:58.243Z,-17.40
2019-01-04T09:02:58.704Z,-17.40
2019-01-04T09:03:59.164Z,-17.39
2019-01-04T09:04:59.625Z,-17.40
2019-01-04T09:06:00.085Z,-17.38
2019-01-04T09:07:00.544Z,-17.38
2019-01-04T09:08:01.008Z,-17.38
2019-01-04T09:09:01.465Z,-17.38
2019-01-04T09:10:01.924Z,-17.38
2019-01-04T09:11:02.383Z,-17.40
2019-01-04T09:12:02.997Z,-17.38
2019-01-04T09:13:03.305Z,-17.38
2019-01-04T09:14:03.767Z,-17.37
2019-01-04T09:15:04.228Z,-17.37
2019-01-04T09:16:04.685Z,-17.36
2019-01-04T09:17:05.195Z,-17.36
2019-01-04T09:18:05.608Z,-17.36
2019-01-04T09:19:06.066Z,-17.36
2019-01-04T09:20:06.528Z,-17.34
2019-01-04T09:21:06.987Z,-17.36
2019-01-04T09:22:07.445Z,-17.36
2019-01-04T09:23:07.908Z,-17.34
2019-01-04T09:24:08.367Z,-17.35
2019-01-04T09:25:08.827Z,-17.33
2019-01-04T09:26:09.287Z,-17.34
2019-01-04T09:27:09.748Z,-17.32
2019-01-04T09:28:10.210Z,-17.32
2019-01-04T09:29:10.667Z,-17.32
2019-01-04T09:30:11.128Z,-17.31
2019-01-04T09:31:11.598Z,-17.32
2019-01-04T09:32:12.049Z,-17.32
2019-01-04T09:33:12.508Z,-17.30
2019-01-04T09:34:12.969Z,-17.30
2019-01-04T09:35:13.430Z,-17.30
2019-01-04T09:36:13.889Z,-17.28
2019-01-04T09:37:14.404Z,-17.28
2019-01-04T09:38:14.817Z,-17.29
2019-01-04T09:39:15.270Z,-17.30
2019-01-04T09:40:15.731Z,-17.28
2019-01-04T09:41:16.192Z,-17.27
2019-01-04T09:42:16.652Z,-17.26
2019-01-04T09:43:17.111Z,-17.26
2019-01-04T09:44:17.570Z,-17.23
2019-01-04T09:45:18.033Z,-17.24
2019-01-04T09:46:18.493Z,-17.22
2019-01-04T09:47:18.956Z,-17.22
2019-01-04T09:48:19.411Z,-17.21
2019-01-04T09:49:19.873Z,-17.21
2019-01-04T09:50:20.333Z,-17.20
2019-01-04T09:51:20.794Z,-17.20
2019-01-04T09:52:21.309Z,-17.20
2019-01-04T09:53:21.743Z,-17.20
2019-01-04T09:54:22.175Z,-17.16
2019-01-04T09:55:22.639Z,-17.18
2019-01-04T09:56:23.095Z,-17.16
2019-01-04T09:57:23.751Z,-17.16
2019-01-04T09:58:24.017Z,-17.14
2019-01-04T09:59:24.477Z,-17.14
2019-01-04T10:00:24.938Z,-17.12
2019-01-04T10:01:25.404Z,-17.12
2019-01-04T10:02:25.912Z,-17.10
2019-01-04T10:03:26.320Z,-17.10
2019-01-04T10:04:26.781Z,-17.10
2019-01-04T10:05:27.239Z,-17.08
2019-01-04T10:06:27.699Z,-17.08
2019-01-04T10:07:28.212Z,-17.06
2019-01-04T10:08:28.621Z,-17.06
2019-01-04T10:09:29.083Z,-17.04
2019-01-04T10:10:29.544Z,-17.05
2019-01-04T10:11:30.003Z,-17.04
2019-01-04T10:12:30.512Z,-17.02
2019-01-04T10:13:30.922Z,-17.02
2019-01-04T10:14:31.383Z,-17.00
2019-01-04T10:15:31.843Z,-17.00
2019-01-04T10:16:32.304Z,-16.98
2019-01-04T10:17:32.765Z,-16.98
2019-01-04T10:18:33.227Z,-16.96
2019-01-04T10:19:33.688Z,-16.96
2019-01-04T10:20:34.146Z,-16.94
2019-01-04T10:21:34.609Z,-16.94
2019-01-04T10:22:35.070Z,-16.92
2019-01-04T10:23:35.529Z,-16.93
2019-01-04T10:24:35.991Z,-16.91
2019-01-04T10:25:36.449Z,-16.90
2019-01-04T10:26:36.909Z,-16.88
2019-01-04T10:27:37.422Z,-16.88
2019-01-04T10:28:37.828Z,-16.86
2019-01-04T10:29:38.290Z,-16.84
2019-01-04T10:30:38.750Z,-16.84
2019-01-04T10:31:39.211Z,-16.82
2019-01-04T10:32:39.873Z,-16.78
2019-01-04T10:33:40.134Z,-16.77
2019-01-04T10:34:40.593Z,-16.76
2019-01-04T10:35:41.056Z,-16.73
2019-01-04T10:36:41.513Z,-16.71
2019-01-04T10:37:41.974Z,-16.68
2019-01-04T10:38:42.437Z,-16.64
2019-01-04T10:39:42.895Z,-16.64
2019-01-04T10:40:43.361Z,-16.60
2019-01-04T10:41:43.817Z,-16.58
2019-01-04T10:42:44.279Z,-16.56
2019-01-04T10:43:44.737Z,-16.52
2019-01-04T10:44:45.199Z,-16.50
2019-01-04T10:45:45.661Z,-16.46
2019-01-04T10:46:46.121Z,-16.44
2019-01-04T10:47:46.582Z,-16.41
2019-01-04T10:48:47.040Z,-16.40
2019-01-04T10:49:47.502Z,-16.36
2019-01-04T10:50:47.965Z,-16.33
2019-01-04T10:51:48.425Z,-16.29
2019-01-04T10:52:48.884Z,-16.27
2019-01-04T10:53:49.345Z,-16.24
2019-01-04T10:54:49.805Z,-16.20
2019-01-04T10:55:50.267Z,-16.19
2019-01-04T10:56:50.734Z,-16.16
2019-01-04T10:57:51.188Z,-16.14
2019-01-04T10:58:51.649Z,-16.12
2019-01-04T10:59:52.110Z,-16.10
2019-01-04T11:00:52.570Z,-16.08
2019-01-04T11:01:53.031Z,-16.08
2019-01-04T11:02:53.498Z,-16.06
2019-01-04T11:03:53.952Z,-16.06
2019-01-04T11:04:54.414Z,-16.06
2019-01-04T11:05:54.878Z,-16.06
2019-01-04T11:06:55.338Z,-16.05
2019-01-04T11:07:55.847Z,-16.04
2019-01-04T11:08:56.258Z,-16.04
2019-01-04T11:09:56.719Z,-16.04
2019-01-04T11:10:57.179Z,-16.04
2019-01-04T11:11:57.641Z,-16.04
2019-01-04T11:12:58.104Z,-16.02
2019-01-04T11:13:58.561Z,-16.01
2019-01-04T11:14:59.023Z,-16.00
2019-01-04T11:15:59.486Z,-15.99
2019-01-04T11:16:59.946Z,-15.96
2019-01-04T11:18:00.407Z,-15.94
2019-01-04T11:19:00.870Z,-15.92
2019-01-04T11:20:01.330Z,-15.88
2019-01-04T11:21:01.790Z,-15.86
2019-01-04T11:22:02.255Z,-15.85
2019-01-04T11:23:02.711Z,-15.83
2019-01-04T11:24:03.176Z,-15.80
2019-01-04T11:25:03.638Z,-15.78
2019-01-04T11:26:04.096Z,-15.76
2019-01-04T11:27:04.562Z,-15.74
2019-01-04T11:28:05.169Z,-15.74
2019-01-04T11:29:05.479Z,-15.72
2019-01-04T11:30:05.941Z,-15.70
2019-01-04T11:31:06.404Z,-15.66
2019-01-04T11:32:06.864Z,-15.64
2019-01-04T11:33:07.322Z,-15.62
2019-01-04T11:34:07.785Z,-15.60
2019-01-04T11:35:08.245Z,-15.58
2019-01-04T11:36:08.709Z,-15.56
2019-01-04T11:37:09.168Z,-15.55
2019-01-04T11:38:09.630Z,-15.53
2019-01-04T11:39:10.091Z,-15.50
2019-01-04T11:40:10.556Z,-15.48
2019-01-04T11:41:11.014Z,-15.48
2019-01-04T11:42:11.475Z,-15.45
2019-01-04T11:43:11.986Z,-15.44
2019-01-04T11:44:12.399Z,-15.44
2019-01-04T11:45:12.858Z,-15.42
2019-01-04T11:46:13.322Z,-15.40
2019-01-04T11:47:13.782Z,-15.40
2019-01-04T11:48:14.243Z,-15.38
2019-01-04T11:49:14.706Z,-15.36
2019-01-04T11:50:15.165Z,-15.36
2019-01-04T11:51:15.628Z,-15.36
2019-01-04T11:52:16.091Z,-15.36
2019-01-04T11:53:16.552Z,-15.34
2019-01-04T11:54:17.011Z,-15.34
2019-01-04T11:55:17.475Z,-15.36
2019-01-04T11:56:17.943Z,-15.35
2019-01-04T11:57:18.396Z,-15.35
2019-01-04T11:58:18.863Z,-15.36
2019-01-04T11:59:19.320Z,-15.38
2019-01-04T12:00:19.782Z,-15.37
2019-01-04T12:01:20.243Z,-15.38
2019-01-04T12:02:26.220Z,-15.36
2019-01-04T12:03:21.169Z,-15.36
2019-01-04T12:04:21.628Z,-15.36
2019-01-04T12:05:22.091Z,-15.36
2019-01-04T12:06:22.553Z,-15.36
2019-01-04T12:07:23.016Z,-15.34
2019-01-04T12:08:23.476Z,-15.34
2019-01-04T12:09:23.938Z,-15.32
2019-01-04T12:10:24.400Z,-15.30
2019-01-04T12:11:24.860Z,-15.28
2019-01-04T12:12:25.323Z,-15.30
2019-01-04T12:13:25.783Z,-15.26
2019-01-04T12:14:26.247Z,-15.24
2019-01-04T12:15:26.709Z,-15.22
2019-01-04T12:16:27.172Z,-15.22
2019-01-04T12:17:27.632Z,-15.18
2019-01-04T12:18:28.096Z,-15.16
2019-01-04T12:19:28.554Z,-15.14
2019-01-04T12:20:29.018Z,-15.12
2019-01-04T12:21:29.479Z,-15.11
2019-01-04T12:22:30.087Z,-15.07
2019-01-04T12:23:30.487Z,-15.06
2019-01-04T12:24:30.866Z,-15.04
2019-01-04T12:25:31.328Z,-15.00
2019-01-04T12:26:31.789Z,-15.00
2019-01-04T12:27:32.256Z,-14.98
2019-01-04T12:28:32.713Z,-14.95
2019-01-04T12:29:33.179Z,-14.94
2019-01-04T12:30:33.637Z,-14.93
2019-01-04T12:31:34.100Z,-14.92
2019-01-04T12:32:34.566Z,-14.90
2019-01-04T12:33:35.023Z,-14.88
2019-01-04T12:34:35.485Z,-14.86
2019-01-04T12:35:35.947Z,-14.86